sensor_id;sensor_type;location;lat;lon;timestamp;pressure;altitude;pressure_sealevel;temperature;humidity
22389;BME280;11362;48.102;11.620;2022-12-07T00:00:29;95105.44;;;22.53;37.35
22389;BME280;11362;48.102;11.620;2022-12-07T00:02:54;95108.97;;;22.54;37.68
22389;BME280;11362;48.102;11.620;2022-12-07T00:05:19;95108.22;;;22.53;37.77
22389;BME280;11362;48.102;11.620;2022-12-07T00:07:45;95107.41;;;22.53;37.49
22389;BME280;11362;48.102;11.620;2022-12-07T00:10:10;95107.78;;;22.55;37.55
22389;BME280;11362;48.102;11.620;2022-12-07T00:12:35;95103.44;;;22.54;37.22
22389;BME280;11362;48.102;11.620;2022-12-07T00:15:00;95099.09;;;22.53;37.17
22389;BME280;11362;48.102;11.620;2022-12-07T00:17:26;95100.66;;;22.54;37.23
22389;BME280;11362;48.102;11.620;2022-12-07T00:19:51;95096.69;;;22.55;37.80
22389;BME280;11362;48.102;11.620;2022-12-07T00:22:16;95097.13;;;22.53;37.38
22389;BME280;11362;48.102;11.620;2022-12-07T00:24:42;95093.56;;;22.53;37.25
22389;BME280;11362;48.102;11.620;2022-12-07T00:27:07;95090.41;;;22.54;37.63
22389;BME280;11362;48.102;11.620;2022-12-07T00:29:32;95087.63;;;22.54;37.32
22389;BME280;11362;48.102;11.620;2022-12-07T00:31:57;95084.06;;;22.54;37.24
22389;BME280;11362;48.102;11.620;2022-12-07T00:34:23;95092.38;;;22.54;37.13
22389;BME280;11362;48.102;11.620;2022-12-07T00:36:48;95092.38;;;22.54;37.52
22389;BME280;11362;48.102;11.620;2022-12-07T00:39:14;95089.59;;;22.54;37.57
22389;BME280;11362;48.102;11.620;2022-12-07T00:41:40;95090.41;;;22.54;37.51
22389;BME280;11362;48.102;11.620;2022-12-07T00:44:05;95087.63;;;22.54;37.55
22389;BME280;11362;48.102;11.620;2022-12-07T00:46:30;95089.59;;;22.54;37.69
22389;BME280;11362;48.102;11.620;2022-12-07T00:48:56;95090.81;;;22.53;37.43
22389;BME280;11362;48.102;11.620;2022-12-07T00:51:23;95088.03;;;22.53;37.76
22389;BME280;11362;48.102;11.620;2022-12-07T00:53:49;95088.03;;;22.53;37.33
22389;BME280;11362;48.102;11.620;2022-12-07T00:56:17;95088.84;;;22.53;37.02
22389;BME280;11362;48.102;11.620;2022-12-07T00:58:42;95096.34;;;22.53;37.15
22389;BME280;11362;48.102;11.620;2022-12-07T01:01:09;95088.03;;;22.53;37.57
22389;BME280;11362;48.102;11.620;2022-12-07T01:03:35;95091.59;;;22.53;37.28
22389;BME280;11362;48.102;11.620;2022-12-07T01:06:01;95095.13;;;22.54;37.18
22389;BME280;11362;48.102;11.620;2022-12-07T01:08:27;95088.84;;;22.53;37.34
22389;BME280;11362;48.102;11.620;2022-12-07T01:11:00;95089.59;;;22.54;37.46
22389;BME280;11362;48.102;11.620;2022-12-07T01:13:25;95085.28;;;22.53;37.00
22389;BME280;11362;48.102;11.620;2022-12-07T01:15:51;95085.28;;;22.53;37.62
22389;BME280;11362;48.102;11.620;2022-12-07T01:18:16;95088.41;;;22.55;37.51
22389;BME280;11362;48.102;11.620;2022-12-07T01:20:41;95093.16;;;22.54;37.53
22389;BME280;11362;48.102;11.620;2022-12-07T01:23:07;95086.84;;;22.54;37.32
22389;BME280;11362;48.102;11.620;2022-12-07T01:25:32;95089.59;;;22.54;37.34
22389;BME280;11362;48.102;11.620;2022-12-07T01:27:57;95081.28;;;22.54;37.15
22389;BME280;11362;48.102;11.620;2022-12-07T01:30:23;95076.16;;;22.56;36.99
22389;BME280;11362;48.102;11.620;2022-12-07T01:32:48;95082.47;;;22.56;37.22
22389;BME280;11362;48.102;11.620;2022-12-07T01:35:13;95095.13;;;22.54;36.88
22389;BME280;11362;48.102;11.620;2022-12-07T01:37:38;95099.47;;;22.55;36.92
22389;BME280;11362;48.102;11.620;2022-12-07T01:40:08;95091.16;;;22.55;37.06
22389;BME280;11362;48.102;11.620;2022-12-07T01:42:34;95098.28;;;22.56;37.32
22389;BME280;11362;48.102;11.620;2022-12-07T01:47:51;95078.53;;;22.54;36.83
22389;BME280;11362;48.102;11.620;2022-12-07T01:50:19;95091.97;;;22.55;36.97
22389;BME280;11362;48.102;11.620;2022-12-07T01:52:46;95088.41;;;22.55;36.69
22389;BME280;11362;48.102;11.620;2022-12-07T01:55:13;95083.25;;;22.57;36.60
22389;BME280;11362;48.102;11.620;2022-12-07T01:57:43;95077.72;;;22.57;36.50
22389;BME280;11362;48.102;11.620;2022-12-07T02:00:11;95077.72;;;22.57;36.94
22389;BME280;11362;48.102;11.620;2022-12-07T02:02:39;95081.28;;;22.54;36.70
22389;BME280;11362;48.102;11.620;2022-12-07T02:05:07;95073.00;;;22.54;36.83
22389;BME280;11362;48.102;11.620;2022-12-07T02:07:34;95081.28;;;22.54;37.05
22389;BME280;11362;48.102;11.620;2022-12-07T02:10:19;95086.06;;;22.53;37.08
22389;BME280;11362;48.102;11.620;2022-12-07T02:12:47;95086.47;;;22.52;36.72
22389;BME280;11362;48.102;11.620;2022-12-07T02:15:14;95078.16;;;22.52;36.77
22389;BME280;11362;48.102;11.620;2022-12-07T02:20:57;95071.78;;;22.55;36.96
22389;BME280;11362;48.102;11.620;2022-12-07T02:23:40;95075.00;;;22.53;36.75
22389;BME280;11362;48.102;11.620;2022-12-07T02:32:06;95069.88;;;22.52;36.49
22389;BME280;11362;48.102;11.620;2022-12-07T02:34:45;95069.88;;;22.52;36.54
22389;BME280;11362;48.102;11.620;2022-12-07T02:37:21;95069.06;;;22.51;36.53
22389;BME280;11362;48.102;11.620;2022-12-07T02:39:54;95073.84;;;22.51;36.88
22389;BME280;11362;48.102;11.620;2022-12-07T02:42:31;95080.94;;;22.52;36.53
22389;BME280;11362;48.102;11.620;2022-12-07T02:44:59;95068.28;;;22.51;36.56
22389;BME280;11362;48.102;11.620;2022-12-07T02:47:26;95073.84;;;22.51;36.67
22389;BME280;11362;48.102;11.620;2022-12-07T02:49:55;95066.72;;;22.50;36.55
22389;BME280;11362;48.102;11.620;2022-12-07T02:52:20;95062.75;;;22.51;36.64
22389;BME280;11362;48.102;11.620;2022-12-07T02:54:45;95061.97;;;22.50;36.37
22389;BME280;11362;48.102;11.620;2022-12-07T03:05:30;95066.31;;;22.51;36.49
22389;BME280;11362;48.102;11.620;2022-12-07T03:08:11;95059.19;;;22.50;36.33
22389;BME280;11362;48.102;11.620;2022-12-07T03:11:00;95057.22;;;22.51;36.30
22389;BME280;11362;48.102;11.620;2022-12-07T03:16:15;95065.53;;;22.51;36.33
22389;BME280;11362;48.102;11.620;2022-12-07T03:18:47;95059.63;;;22.49;36.42
22389;BME280;11362;48.102;11.620;2022-12-07T03:21:18;95064.38;;;22.48;36.08
22389;BME280;11362;48.102;11.620;2022-12-07T03:23:48;95060.84;;;22.48;36.15
22389;BME280;11362;48.102;11.620;2022-12-07T03:26:16;95063.59;;;22.48;36.33
22389;BME280;11362;48.102;11.620;2022-12-07T03:28:48;95061.59;;;22.48;36.24
22389;BME280;11362;48.102;11.620;2022-12-07T03:31:20;95062.41;;;22.49;36.40
22389;BME280;11362;48.102;11.620;2022-12-07T03:34:07;95057.28;;;22.47;36.10
22389;BME280;11362;48.102;11.620;2022-12-07T03:36:47;95050.94;;;22.47;36.06
22389;BME280;11362;48.102;11.620;2022-12-07T03:39:22;95056.47;;;22.47;36.16
22389;BME280;11362;48.102;11.620;2022-12-07T03:41:50;95052.53;;;22.48;36.04
22389;BME280;11362;48.102;11.620;2022-12-07T03:44:16;95052.94;;;22.46;36.03
22389;BME280;11362;48.102;11.620;2022-12-07T03:47:17;95049.38;;;22.46;36.06
22389;BME280;11362;48.102;11.620;2022-12-07T03:49:56;95049.38;;;22.46;35.85
22389;BME280;11362;48.102;11.620;2022-12-07T03:55:15;95050.16;;;22.46;36.40
22389;BME280;11362;48.102;11.620;2022-12-07T03:57:44;95045.84;;;22.45;36.14
22389;BME280;11362;48.102;11.620;2022-12-07T04:00:12;95043.84;;;22.46;36.18
22389;BME280;11362;48.102;11.620;2022-12-07T04:02:38;95033.22;;;22.44;35.92
22389;BME280;11362;48.102;11.620;2022-12-07T04:05:04;95043.84;;;22.46;36.09
22389;BME280;11362;48.102;11.620;2022-12-07T04:07:29;95035.53;;;22.46;35.94
22389;BME280;11362;48.102;11.620;2022-12-07T04:09:54;95037.91;;;22.47;35.94
22389;BME280;11362;48.102;11.620;2022-12-07T04:12:21;95032.78;;;22.46;35.77
22389;BME280;11362;48.102;11.620;2022-12-07T04:14:46;95034.34;;;22.47;36.14
22389;BME280;11362;48.102;11.620;2022-12-07T04:17:12;95040.66;;;22.47;36.13
22389;BME280;11362;48.102;11.620;2022-12-07T04:19:37;95039.88;;;22.47;36.01
22389;BME280;11362;48.102;11.620;2022-12-07T04:22:06;95045.41;;;22.47;35.97
22389;BME280;11362;48.102;11.620;2022-12-07T04:24:32;95041.47;;;22.48;35.65
22389;BME280;11362;48.102;11.620;2022-12-07T04:26:57;95044.22;;;22.48;36.77
22389;BME280;11362;48.102;11.620;2022-12-07T04:29:23;95039.88;;;22.47;36.01
22389;BME280;11362;48.102;11.620;2022-12-07T04:31:49;95039.88;;;22.47;36.07
22389;BME280;11362;48.102;11.620;2022-12-07T04:34:15;95045.41;;;22.47;36.18
22389;BME280;11362;48.102;11.620;2022-12-07T04:36:42;95042.63;;;22.47;36.10
22389;BME280;11362;48.102;11.620;2022-12-07T04:39:09;95042.63;;;22.47;36.26
22389;BME280;11362;48.102;11.620;2022-12-07T04:41:38;95046.19;;;22.47;35.78
22389;BME280;11362;48.102;11.620;2022-12-07T04:44:04;95048.16;;;22.47;35.75
22389;BME280;11362;48.102;11.620;2022-12-07T04:46:31;95046.19;;;22.47;35.92
22389;BME280;11362;48.102;11.620;2022-12-07T04:48:57;95039.06;;;22.50;35.37
22389;BME280;11362;48.102;11.620;2022-12-07T04:51:27;95041.47;;;22.48;35.90
22389;BME280;11362;48.102;11.620;2022-12-07T04:53:53;95048.16;;;22.47;35.67
22389;BME280;11362;48.102;11.620;2022-12-07T04:56:19;95042.22;;;22.48;35.68
22389;BME280;11362;48.102;11.620;2022-12-07T04:58:46;95044.22;;;22.48;35.98
22389;BME280;11362;48.102;11.620;2022-12-07T05:01:12;95041.47;;;22.48;35.65
22389;BME280;11362;48.102;11.620;2022-12-07T05:03:38;95047.00;;;22.48;35.89
22389;BME280;11362;48.102;11.620;2022-12-07T05:06:03;95047.00;;;22.48;35.80
22389;BME280;11362;48.102;11.620;2022-12-07T05:08:29;95052.53;;;22.48;35.71
22389;BME280;11362;48.102;11.620;2022-12-07T05:10:54;95053.31;;;22.48;35.78
22389;BME280;11362;48.102;11.620;2022-12-07T05:13:19;95044.59;;;22.50;35.89
22389;BME280;11362;48.102;11.620;2022-12-07T05:15:46;95046.56;;;22.49;35.68
22389;BME280;11362;48.102;11.620;2022-12-07T05:18:12;95048.56;;;22.49;35.69
22389;BME280;11362;48.102;11.620;2022-12-07T05:20:40;95046.56;;;22.49;35.78
22389;BME280;11362;48.102;11.620;2022-12-07T05:23:06;95044.22;;;22.48;36.10
22389;BME280;11362;48.102;11.620;2022-12-07T05:25:31;95041.81;;;22.50;35.59
22389;BME280;11362;48.102;11.620;2022-12-07T05:27:56;95044.22;;;22.48;35.70
22389;BME280;11362;48.102;11.620;2022-12-07T05:30:23;95040.66;;;22.47;35.44
22389;BME280;11362;48.102;11.620;2022-12-07T05:32:48;95044.22;;;22.48;35.91
22389;BME280;11362;48.102;11.620;2022-12-07T05:35:14;95037.50;;;22.49;35.81
22389;BME280;11362;48.102;11.620;2022-12-07T05:37:39;95042.22;;;22.48;35.80
22389;BME280;11362;48.102;11.620;2022-12-07T05:40:05;95043.03;;;22.49;35.92
22389;BME280;11362;48.102;11.620;2022-12-07T05:42:31;95033.94;;;22.48;35.92
22389;BME280;11362;48.102;11.620;2022-12-07T05:44:56;95038.69;;;22.48;35.60
22389;BME280;11362;48.102;11.620;2022-12-07T05:47:21;95042.63;;;22.47;35.50
22389;BME280;11362;48.102;11.620;2022-12-07T05:49:47;95048.56;;;22.49;35.81
22389;BME280;11362;48.102;11.620;2022-12-07T05:52:12;95037.50;;;22.49;35.85
22389;BME280;11362;48.102;11.620;2022-12-07T05:54:37;95043.03;;;22.49;35.86
22389;BME280;11362;48.102;11.620;2022-12-07T05:57:03;95047.34;;;22.50;35.56
22389;BME280;11362;48.102;11.620;2022-12-07T05:59:28;95044.22;;;22.48;36.13
22389;BME280;11362;48.102;11.620;2022-12-07T06:01:58;95047.75;;;22.48;35.75
22389;BME280;11362;48.102;11.620;2022-12-07T06:04:26;95044.63;;;22.46;35.89
22389;BME280;11362;48.102;11.620;2022-12-07T06:06:52;95048.16;;;22.47;35.60
22389;BME280;11362;48.102;11.620;2022-12-07T06:09:19;95050.53;;;22.48;35.55
22389;BME280;11362;48.102;11.620;2022-12-07T06:11:44;95048.56;;;22.49;35.78
22389;BME280;11362;48.102;11.620;2022-12-07T06:14:10;95048.13;;;22.50;35.75
22389;BME280;11362;48.102;11.620;2022-12-07T06:16:35;95052.53;;;22.48;35.63
22389;BME280;11362;48.102;11.620;2022-12-07T06:19:00;95050.94;;;22.47;35.59
22389;BME280;11362;48.102;11.620;2022-12-07T06:21:26;95057.28;;;22.47;35.49
22389;BME280;11362;48.102;11.620;2022-12-07T06:23:51;95061.59;;;22.48;35.40
22389;BME280;11362;48.102;11.620;2022-12-07T06:26:16;95069.13;;;22.48;35.34
22389;BME280;11362;48.102;11.620;2022-12-07T06:28:41;95064.38;;;22.48;35.44
22389;BME280;11362;48.102;11.620;2022-12-07T06:31:07;95059.63;;;22.49;35.57
22389;BME280;11362;48.102;11.620;2022-12-07T06:33:32;95066.72;;;22.50;35.87
22389;BME280;11362;48.102;11.620;2022-12-07T06:35:58;95068.28;;;22.51;36.37
22389;BME280;11362;48.102;11.620;2022-12-07T06:38:23;95071.44;;;22.53;36.39
22389;BME280;11362;48.102;11.620;2022-12-07T06:40:48;95060.34;;;22.53;36.52
22389;BME280;11362;48.102;11.620;2022-12-07T06:43:14;95069.03;;;22.55;36.75
22389;BME280;11362;48.102;11.620;2022-12-07T06:45:41;95053.22;;;22.55;36.89
22389;BME280;11362;48.102;11.620;2022-12-07T06:48:06;95057.13;;;22.58;37.03
22389;BME280;11362;48.102;11.620;2022-12-07T06:50:31;95061.09;;;22.57;36.96
22389;BME280;11362;48.102;11.620;2022-12-07T06:52:57;95070.56;;;22.59;37.21
22389;BME280;11362;48.102;11.620;2022-12-07T06:55:22;95077.25;;;22.62;37.67
22389;BME280;11362;48.102;11.620;2022-12-07T06:57:47;95075.25;;;22.62;37.61
22389;BME280;11362;48.102;11.620;2022-12-07T07:00:13;95077.25;;;22.62;37.69
22389;BME280;11362;48.102;11.620;2022-12-07T07:02:39;95075.66;;;22.61;37.57
22389;BME280;11362;48.102;11.620;2022-12-07T07:05:04;95076.88;;;22.60;37.81
22389;BME280;11362;48.102;11.620;2022-12-07T07:07:29;95076.88;;;22.60;37.32
22389;BME280;11362;48.102;11.620;2022-12-07T07:09:55;95083.22;;;22.60;37.39
22389;BME280;11362;48.102;11.620;2022-12-07T07:12:20;95077.28;;;22.58;37.34
22389;BME280;11362;48.102;11.620;2022-12-07T07:14:45;95073.34;;;22.59;36.93
22389;BME280;11362;48.102;11.620;2022-12-07T07:17:11;95077.28;;;22.58;37.22
22389;BME280;11362;48.102;11.620;2022-12-07T07:19:36;95080.84;;;22.59;37.22
22389;BME280;11362;48.102;11.620;2022-12-07T07:22:01;95108.53;;;22.59;36.83
22389;BME280;11362;48.102;11.620;2022-12-07T07:24:27;95100.63;;;22.57;36.10
22389;BME280;11362;48.102;11.620;2022-12-07T07:26:52;95108.16;;;22.57;35.94
22389;BME280;11362;48.102;11.620;2022-12-07T07:29:17;95103.84;;;22.56;35.80
22389;BME280;11362;48.102;11.620;2022-12-07T07:31:42;95119.66;;;22.55;35.54
22389;BME280;11362;48.102;11.620;2022-12-07T07:34:08;95118.84;;;22.55;36.47
22389;BME280;11362;48.102;11.620;2022-12-07T07:36:33;95099.91;;;22.53;35.98
22389;BME280;11362;48.102;11.620;2022-12-07T07:38:58;95105.44;;;22.53;35.96
22389;BME280;11362;48.102;11.620;2022-12-07T07:41:24;95107.41;;;22.53;35.88
22389;BME280;11362;48.102;11.620;2022-12-07T07:43:49;95110.19;;;22.53;36.41
22389;BME280;11362;48.102;11.620;2022-12-07T07:46:14;95107.78;;;22.55;35.90
22389;BME280;11362;48.102;11.620;2022-12-07T07:48:39;95109.38;;;22.56;36.00
22389;BME280;11362;48.102;11.620;2022-12-07T07:51:08;95105.81;;;22.55;36.39
22389;BME280;11362;48.102;11.620;2022-12-07T07:53:33;95099.47;;;22.55;36.29
22389;BME280;11362;48.102;11.620;2022-12-07T07:55:59;95098.28;;;22.56;36.60
22389;BME280;11362;48.102;11.620;2022-12-07T07:58:24;95105.41;;;22.57;35.97
22389;BME280;11362;48.102;11.620;2022-12-07T08:00:49;95095.88;;;22.58;36.14
22389;BME280;11362;48.102;11.620;2022-12-07T08:03:15;95103.41;;;22.57;36.57
22389;BME280;11362;48.102;11.620;2022-12-07T08:05:40;95110.94;;;22.57;36.62
22389;BME280;11362;48.102;11.620;2022-12-07T08:08:06;95110.13;;;22.56;36.39
22389;BME280;11362;48.102;11.620;2022-12-07T08:10:31;95114.09;;;22.55;36.46
22389;BME280;11362;48.102;11.620;2022-12-07T08:12:56;95109.38;;;22.56;36.54
22389;BME280;11362;48.102;11.620;2022-12-07T08:15:21;95110.13;;;22.56;36.37
22389;BME280;11362;48.102;11.620;2022-12-07T08:17:47;95111.69;;;22.57;36.30
22389;BME280;11362;48.102;11.620;2022-12-07T08:20:12;95106.16;;;22.57;36.53
22389;BME280;11362;48.102;11.620;2022-12-07T08:22:37;95106.97;;;22.58;36.47
22389;BME280;11362;48.102;11.620;2022-12-07T08:25:03;95105.34;;;22.60;36.91
22389;BME280;11362;48.102;11.620;2022-12-07T08:27:28;95112.88;;;22.60;36.99
22389;BME280;11362;48.102;11.620;2022-12-07T08:29:53;95112.47;;;22.61;37.56
22389;BME280;11362;48.102;11.620;2022-12-07T08:32:19;95117.19;;;22.61;37.96
22389;BME280;11362;48.102;11.620;2022-12-07T08:34:44;95106.13;;;22.61;37.91
22389;BME280;11362;48.102;11.620;2022-12-07T08:37:09;95112.47;;;22.61;37.88
22389;BME280;11362;48.102;11.620;2022-12-07T08:39:34;95110.09;;;22.60;37.42
22389;BME280;11362;48.102;11.620;2022-12-07T08:42:00;95112.47;;;22.61;38.09
22389;BME280;11362;48.102;11.620;2022-12-07T08:44:25;95089.50;;;22.61;38.18
22389;BME280;11362;48.102;11.620;2022-12-07T08:46:58;95088.75;;;22.60;37.73
22389;BME280;11362;48.102;11.620;2022-12-07T08:49:31;95079.28;;;22.58;37.45
22389;BME280;11362;48.102;11.620;2022-12-07T08:51:58;95111.66;;;22.61;37.41
22389;BME280;11362;48.102;11.620;2022-12-07T08:54:24;95108.13;;;22.60;37.41
22389;BME280;11362;48.102;11.620;2022-12-07T08:56:50;95113.22;;;22.62;37.62
22389;BME280;11362;48.102;11.620;2022-12-07T08:59:17;95113.22;;;22.62;37.26
22389;BME280;11362;48.102;11.620;2022-12-07T09:01:43;95118.75;;;22.62;37.57
22389;BME280;11362;48.102;11.620;2022-12-07T09:04:08;95112.47;;;22.61;37.33
22389;BME280;11362;48.102;11.620;2022-12-07T09:06:33;95123.13;;;22.63;37.34
22389;BME280;11362;48.102;11.620;2022-12-07T09:09:01;95114.38;;;22.64;37.34
22389;BME280;11362;48.102;11.620;2022-12-07T09:11:26;95152.38;;;22.64;37.12
22389;BME280;11362;48.102;11.620;2022-12-07T09:13:51;95138.13;;;22.25;30.82
22389;BME280;11362;48.102;11.620;2022-12-07T09:16:17;95114.19;;;22.11;32.63
22389;BME280;11362;48.102;11.620;2022-12-07T09:18:42;95117.59;;;22.22;32.78
22389;BME280;11362;48.102;11.620;2022-12-07T09:21:07;95119.13;;;22.30;33.48
22389;BME280;11362;48.102;11.620;2022-12-07T09:23:33;95101.66;;;22.37;34.01
22389;BME280;11362;48.102;11.620;2022-12-07T09:26:00;95105.56;;;22.43;34.41
22389;BME280;11362;48.102;11.620;2022-12-07T09:28:26;95107.94;;;22.44;34.87
22389;BME280;11362;48.102;11.620;2022-12-07T09:30:51;95108.69;;;22.45;35.35
22389;BME280;11362;48.102;11.620;2022-12-07T09:33:16;95111.06;;;22.46;35.59
22389;BME280;11362;48.102;11.620;2022-12-07T09:35:46;95107.09;;;22.47;35.52
22389;BME280;11362;48.102;11.620;2022-12-07T09:38:11;95111.03;;;22.50;35.60
22389;BME280;11362;48.102;11.620;2022-12-07T09:40:37;95107.88;;;22.48;35.88
22389;BME280;11362;48.102;11.620;2022-12-07T09:43:02;95103.91;;;22.49;36.22
22389;BME280;11362;48.102;11.620;2022-12-07T09:45:34;95093.22;;;22.51;36.13
22389;BME280;11362;48.102;11.620;2022-12-07T09:48:01;95088.44;;;22.51;36.19
22389;BME280;11362;48.102;11.620;2022-12-07T09:50:28;95092.81;;;22.52;36.39
22389;BME280;11362;48.102;11.620;2022-12-07T09:53:03;95088.84;;;22.53;36.22
22389;BME280;11362;48.102;11.620;2022-12-07T09:55:30;95096.69;;;22.55;36.08
22389;BME280;11362;48.102;11.620;2022-12-07T09:57:57;95096.69;;;22.55;36.29
22389;BME280;11362;48.102;11.620;2022-12-07T10:00:24;95093.94;;;22.55;36.14
22389;BME280;11362;48.102;11.620;2022-12-07T10:02:55;95095.88;;;22.58;36.26
22389;BME280;11362;48.102;11.620;2022-12-07T10:05:28;95091.13;;;22.58;36.07
22389;BME280;11362;48.102;11.620;2022-12-07T10:07:55;95084.81;;;22.58;36.08
22389;BME280;11362;48.102;11.620;2022-12-07T10:10:30;95090.34;;;22.58;36.35
22389;BME280;11362;48.102;11.620;2022-12-07T10:13:06;95083.22;;;22.60;36.39
22389;BME280;11362;48.102;11.620;2022-12-07T10:15:58;95102.59;;;22.60;35.49
22389;BME280;11362;48.102;11.620;2022-12-07T10:18:30;95086.03;;;22.57;34.62
22389;BME280;11362;48.102;11.620;2022-12-07T10:23:30;95078.13;;;22.55;35.27
22389;BME280;11362;48.102;11.620;2022-12-07T10:25:56;95070.22;;;22.54;35.14
22389;BME280;11362;48.102;11.620;2022-12-07T10:28:22;95080.09;;;22.55;35.19
22389;BME280;11362;48.102;11.620;2022-12-07T10:30:59;95070.19;;;22.57;35.21
22389;BME280;11362;48.102;11.620;2022-12-07T10:33:48;95072.19;;;22.57;35.10
22389;BME280;11362;48.102;11.620;2022-12-07T10:36:23;95042.50;;;22.57;35.27
22389;BME280;11362;48.102;11.620;2022-12-07T10:38:58;95046.84;;;22.58;35.04
22389;BME280;11362;48.102;11.620;2022-12-07T10:41:24;95074.09;;;22.60;34.92
22389;BME280;11362;48.102;11.620;2022-12-07T10:43:55;95074.47;;;22.62;35.01
22389;BME280;11362;48.102;11.620;2022-12-07T10:46:29;95061.41;;;22.62;35.29
22389;BME280;11362;48.102;11.620;2022-12-07T10:57:35;95062.94;;;22.67;35.35
22389;BME280;11362;48.102;11.620;2022-12-07T11:00:22;95053.44;;;22.68;35.53
22389;BME280;11362;48.102;11.620;2022-12-07T11:02:59;95054.59;;;22.70;35.48
22389;BME280;11362;48.102;11.620;2022-12-07T11:08:44;95041.84;;;22.76;35.32
22389;BME280;11362;48.102;11.620;2022-12-07T11:11:16;95041.91;;;22.73;35.64
22389;BME280;11362;48.102;11.620;2022-12-07T11:19:16;95033.44;;;22.83;35.28
22389;BME280;11362;48.102;11.620;2022-12-07T11:21:56;95034.59;;;22.86;35.31
22389;BME280;11362;48.102;11.620;2022-12-07T11:27:39;95023.81;;;22.91;35.31
22389;BME280;11362;48.102;11.620;2022-12-07T11:30:20;95025.78;;;22.91;35.09
22389;BME280;11362;48.102;11.620;2022-12-07T11:35:53;95023.53;;;22.86;35.47
22389;BME280;11362;48.102;11.620;2022-12-07T11:38:25;95017.13;;;22.89;35.71
22389;BME280;11362;48.102;11.620;2022-12-07T11:40:54;95024.22;;;22.90;35.53
22389;BME280;11362;48.102;11.620;2022-12-07T11:43:26;95012.75;;;22.91;35.67
22389;BME280;11362;48.102;11.620;2022-12-07T11:45:59;95002.81;;;22.94;35.58
22389;BME280;11362;48.102;11.620;2022-12-07T11:48:47;95002.47;;;22.92;35.63
22389;BME280;11362;48.102;11.620;2022-12-07T11:51:20;95006.06;;;22.89;35.54
22389;BME280;11362;48.102;11.620;2022-12-07T11:53:52;95000.50;;;22.89;35.88
22389;BME280;11362;48.102;11.620;2022-12-07T11:56:24;95008.47;;;22.87;35.89
22389;BME280;11362;48.102;11.620;2022-12-07T11:59:17;94990.28;;;22.86;35.80
22389;BME280;11362;48.102;11.620;2022-12-07T12:01:53;94988.22;;;22.90;35.92
22389;BME280;11362;48.102;11.620;2022-12-07T12:04:35;94987.06;;;22.87;35.92
22389;BME280;11362;48.102;11.620;2022-12-07T12:07:06;94984.75;;;22.86;36.15
22389;BME280;11362;48.102;11.620;2022-12-07T12:09:43;94983.94;;;22.85;36.10
22389;BME280;11362;48.102;11.620;2022-12-07T12:15:23;94985.97;;;22.85;36.69
22389;BME280;11362;48.102;11.620;2022-12-07T12:18:26;94966.56;;;22.85;36.36
22389;BME280;11362;48.102;11.620;2022-12-07T12:21:09;94970.09;;;22.85;36.48
22389;BME280;11362;48.102;11.620;2022-12-07T12:23:42;94963.78;;;22.85;36.30
22389;BME280;11362;48.102;11.620;2022-12-07T12:26:16;94972.47;;;22.87;36.61
22389;BME280;11362;48.102;11.620;2022-12-07T12:31:15;94964.09;;;22.90;36.50
22389;BME280;11362;48.102;11.620;2022-12-07T12:34:01;94970.06;;;22.89;36.38
22389;BME280;11362;48.102;11.620;2022-12-07T12:36:45;94964.50;;;22.89;36.73
22389;BME280;11362;48.102;11.620;2022-12-07T12:39:16;94962.94;;;22.88;36.82
22389;BME280;11362;48.102;11.620;2022-12-07T12:46:58;94969.63;;;22.90;36.25
22389;BME280;11362;48.102;11.620;2022-12-07T12:49:32;94964.50;;;22.89;36.68
22389;BME280;11362;48.102;11.620;2022-12-07T12:52:02;94966.50;;;22.88;36.71
22389;BME280;11362;48.102;11.620;2022-12-07T12:54:59;94953.44;;;22.89;36.31
22389;BME280;11362;48.102;11.620;2022-12-07T12:57:30;94957.75;;;22.90;36.37
22389;BME280;11362;48.102;11.620;2022-12-07T12:59:57;94957.00;;;22.89;36.38
22389;BME280;11362;48.102;11.620;2022-12-07T13:02:56;94955.44;;;22.88;36.14
22389;BME280;11362;48.102;11.620;2022-12-07T13:05:25;94987.81;;;22.91;36.33
22389;BME280;11362;48.102;11.620;2022-12-07T13:08:02;94953.03;;;22.90;36.54
22389;BME280;11362;48.102;11.620;2022-12-07T13:10:36;94954.16;;;22.93;36.70
22389;BME280;11362;48.102;11.620;2022-12-07T13:15:42;94943.44;;;22.95;36.38
22389;BME280;11362;48.102;11.620;2022-12-07T13:20:51;94938.75;;;22.92;36.72
22389;BME280;11362;48.102;11.620;2022-12-07T13:23:24;94948.19;;;22.94;36.60
22389;BME280;11362;48.102;11.620;2022-12-07T13:25:54;94941.81;;;22.97;36.54
22389;BME280;11362;48.102;11.620;2022-12-07T13:28:23;94938.66;;;22.99;36.45
22389;BME280;11362;48.102;11.620;2022-12-07T13:31:18;94939.00;;;23.01;36.23
22389;BME280;11362;48.102;11.620;2022-12-07T13:33:45;94934.50;;;23.10;36.16
22389;BME280;11362;48.102;11.620;2022-12-07T13:36:19;94936.16;;;23.04;36.39
22389;BME280;11362;48.102;11.620;2022-12-07T13:38:59;94940.97;;;23.00;36.62
22389;BME280;11362;48.102;11.620;2022-12-07T13:41:29;94967.91;;;23.00;36.28
22389;BME280;11362;48.102;11.620;2022-12-07T13:44:15;94964.41;;;22.96;37.05
22389;BME280;11362;48.102;11.620;2022-12-07T13:46:46;94967.91;;;23.00;38.20
22389;BME280;11362;48.102;11.620;2022-12-07T13:49:20;94969.34;;;23.08;38.22
22389;BME280;11362;48.102;11.620;2022-12-07T13:51:45;94966.22;;;23.06;39.10
22389;BME280;11362;48.102;11.620;2022-12-07T13:54:13;94950.66;;;23.12;39.16
22389;BME280;11362;48.102;11.620;2022-12-07T13:56:39;94934.50;;;23.10;39.17
22389;BME280;11362;48.102;11.620;2022-12-07T13:59:13;94935.25;;;23.11;39.16
22389;BME280;11362;48.102;11.620;2022-12-07T14:01:39;94938.41;;;23.13;38.64
22389;BME280;11362;48.102;11.620;2022-12-07T14:04:27;94942.41;;;23.08;39.04
22389;BME280;11362;48.102;11.620;2022-12-07T14:06:54;94934.97;;;23.05;38.21